sensor_id;sensor_type;location;lat;lon;timestamp;P1;durP1;ratioP1;P2;durP2;ratioP2
26686;SDS011;14298;50.900;4.648;2023-02-28T00:01:54;2.13;;;1.93;;
26686;SDS011;14298;50.900;4.648;2023-02-28T00:04:22;3.17;;;2.83;;
26686;SDS011;14298;50.900;4.648;2023-02-28T00:06:51;2.93;;;2.80;;
26686;SDS011;14298;50.900;4.648;2023-02-28T00:09:19;1.80;;;1.70;;
26686;SDS011;14298;50.900;4.648;2023-02-28T00:11:47;1.90;;;1.80;;
26686;SDS011;14298;50.900;4.648;2023-02-28T00:14:16;2.30;;;2.20;;
26686;SDS011;14298;50.900;4.648;2023-02-28T00:16:44;3.20;;;2.40;;
26686;SDS011;14298;50.900;4.648;2023-02-28T00:19:12;1.90;;;1.80;;
26686;SDS011;14298;50.900;4.648;2023-02-28T00:21:41;1.83;;;1.73;;
26686;SDS011;14298;50.900;4.648;2023-02-28T00:24:10;1.60;;;1.53;;
26686;SDS011;14298;50.900;4.648;2023-02-28T00:26:38;3.03;;;2.83;;
26686;SDS011;14298;50.900;4.648;2023-02-28T00:31:54;1.73;;;1.63;;
26686;SDS011;14298;50.900;4.648;2023-02-28T00:34:22;1.83;;;1.73;;
26686;SDS011;14298;50.900;4.648;2023-02-28T00:36:50;3.07;;;2.50;;
26686;SDS011;14298;50.900;4.648;2023-02-28T00:39:19;2.03;;;1.93;;
26686;SDS011;14298;50.900;4.648;2023-02-28T00:41:48;1.53;;;1.53;;
26686;SDS011;14298;50.900;4.648;2023-02-28T00:44:16;7.60;;;2.90;;
26686;SDS011;14298;50.900;4.648;2023-02-28T00:46:46;3.20;;;2.63;;
26686;SDS011;14298;50.900;4.648;2023-02-28T00:49:14;1.57;;;1.47;;
26686;SDS011;14298;50.900;4.648;2023-02-28T00:51:43;3.30;;;2.20;;
26686;SDS011;14298;50.900;4.648;2023-02-28T00:54:11;1.90;;;1.80;;
26686;SDS011;14298;50.900;4.648;2023-02-28T00:56:40;1.90;;;1.80;;
26686;SDS011;14298;50.900;4.648;2023-02-28T00:59:08;1.90;;;1.80;;
26686;SDS011;14298;50.900;4.648;2023-02-28T01:01:37;1.47;;;1.37;;
26686;SDS011;14298;50.900;4.648;2023-02-28T01:04:06;2.77;;;2.57;;
26686;SDS011;14298;50.900;4.648;2023-02-28T01:06:34;2.13;;;2.03;;
26686;SDS011;14298;50.900;4.648;2023-02-28T01:09:04;2.20;;;2.10;;
26686;SDS011;14298;50.900;4.648;2023-02-28T01:11:33;3.37;;;1.73;;
26686;SDS011;14298;50.900;4.648;2023-02-28T01:14:02;1.53;;;1.47;;
26686;SDS011;14298;50.900;4.648;2023-02-28T01:16:30;1.47;;;1.23;;
26686;SDS011;14298;50.900;4.648;2023-02-28T01:18:59;2.27;;;2.17;;
26686;SDS011;14298;50.900;4.648;2023-02-28T01:21:27;2.90;;;1.87;;
26686;SDS011;14298;50.900;4.648;2023-02-28T01:23:56;1.33;;;1.33;;
26686;SDS011;14298;50.900;4.648;2023-02-28T01:26:25;1.27;;;1.27;;
26686;SDS011;14298;50.900;4.648;2023-02-28T01:28:53;2.00;;;1.90;;
26686;SDS011;14298;50.900;4.648;2023-02-28T01:31:22;2.97;;;2.77;;
26686;SDS011;14298;50.900;4.648;2023-02-28T01:33:51;1.90;;;1.80;;
26686;SDS011;14298;50.900;4.648;2023-02-28T01:36:21;1.00;;;1.00;;
26686;SDS011;14298;50.900;4.648;2023-02-28T01:38:51;1.40;;;1.40;;
26686;SDS011;14298;50.900;4.648;2023-02-28T01:41:21;2.20;;;2.10;;
26686;SDS011;14298;50.900;4.648;2023-02-28T01:43:58;2.33;;;2.23;;
26686;SDS011;14298;50.900;4.648;2023-02-28T01:46:32;1.93;;;1.83;;
26686;SDS011;14298;50.900;4.648;2023-02-28T01:49:07;2.13;;;2.03;;
26686;SDS011;14298;50.900;4.648;2023-02-28T01:51:46;1.93;;;1.83;;
26686;SDS011;14298;50.900;4.648;2023-02-28T01:54:22;2.60;;;2.43;;
26686;SDS011;14298;50.900;4.648;2023-02-28T01:56:56;1.40;;;1.40;;
26686;SDS011;14298;50.900;4.648;2023-02-28T01:59:28;1.83;;;1.73;;
26686;SDS011;14298;50.900;4.648;2023-02-28T02:02:01;1.73;;;1.63;;
26686;SDS011;14298;50.900;4.648;2023-02-28T02:04:34;1.90;;;1.83;;
26686;SDS011;14298;50.900;4.648;2023-02-28T02:10:04;2.03;;;1.93;;
26686;SDS011;14298;50.900;4.648;2023-02-28T02:15:39;1.77;;;1.77;;
26686;SDS011;14298;50.900;4.648;2023-02-28T02:18:09;1.73;;;1.63;;
26686;SDS011;14298;50.900;4.648;2023-02-28T02:23:21;1.80;;;1.70;;
26686;SDS011;14298;50.900;4.648;2023-02-28T02:31:54;1.60;;;1.50;;
26686;SDS011;14298;50.900;4.648;2023-02-28T02:37:18;2.10;;;2.00;;
26686;SDS011;14298;50.900;4.648;2023-02-28T02:39:53;2.43;;;2.13;;
26686;SDS011;14298;50.900;4.648;2023-02-28T02:42:25;2.13;;;2.03;;
26686;SDS011;14298;50.900;4.648;2023-02-28T02:48:21;2.87;;;1.80;;
26686;SDS011;14298;50.900;4.648;2023-02-28T02:50:55;1.60;;;1.50;;
26686;SDS011;14298;50.900;4.648;2023-02-28T02:53:30;2.60;;;2.40;;
26686;SDS011;14298;50.900;4.648;2023-02-28T02:56:01;1.17;;;1.17;;
26686;SDS011;14298;50.900;4.648;2023-02-28T02:58:37;1.70;;;1.60;;
26686;SDS011;14298;50.900;4.648;2023-02-28T03:01:02;2.50;;;2.40;;
26686;SDS011;14298;50.900;4.648;2023-02-28T03:03:32;2.30;;;2.10;;
26686;SDS011;14298;50.900;4.648;2023-02-28T03:06:02;2.30;;;2.10;;
26686;SDS011;14298;50.900;4.648;2023-02-28T03:08:37;2.73;;;2.53;;
26686;SDS011;14298;50.900;4.648;2023-02-28T03:11:11;1.83;;;1.77;;
26686;SDS011;14298;50.900;4.648;2023-02-28T03:13:44;2.37;;;2.20;;
26686;SDS011;14298;50.900;4.648;2023-02-28T03:21:40;2.67;;;2.47;;
26686;SDS011;14298;50.900;4.648;2023-02-28T03:24:24;2.07;;;1.97;;
26686;SDS011;14298;50.900;4.648;2023-02-28T03:26:55;3.73;;;2.63;;
26686;SDS011;14298;50.900;4.648;2023-02-28T03:32:04;4.30;;;2.97;;
26686;SDS011;14298;50.900;4.648;2023-02-28T03:34:31;3.87;;;2.07;;
26686;SDS011;14298;50.900;4.648;2023-02-28T03:37:12;2.03;;;1.93;;
26686;SDS011;14298;50.900;4.648;2023-02-28T03:39:49;2.10;;;2.00;;
26686;SDS011;14298;50.900;4.648;2023-02-28T03:42:20;2.67;;;2.57;;
26686;SDS011;14298;50.900;4.648;2023-02-28T03:44:54;2.83;;;2.63;;
26686;SDS011;14298;50.900;4.648;2023-02-28T03:47:51;2.07;;;1.97;;
26686;SDS011;14298;50.900;4.648;2023-02-28T03:53:07;2.50;;;2.40;;
26686;SDS011;14298;50.900;4.648;2023-02-28T03:55:42;5.53;;;3.63;;
26686;SDS011;14298;50.900;4.648;2023-02-28T04:00:49;2.93;;;2.67;;
26686;SDS011;14298;50.900;4.648;2023-02-28T04:03:19;1.87;;;1.77;;
26686;SDS011;14298;50.900;4.648;2023-02-28T04:05:51;1.73;;;1.63;;
26686;SDS011;14298;50.900;4.648;2023-02-28T04:08:21;2.40;;;2.30;;
26686;SDS011;14298;50.900;4.648;2023-02-28T04:10:52;1.93;;;1.83;;
26686;SDS011;14298;50.900;4.648;2023-02-28T04:13:24;2.70;;;1.93;;
26686;SDS011;14298;50.900;4.648;2023-02-28T04:15:53;2.30;;;2.17;;
26686;SDS011;14298;50.900;4.648;2023-02-28T04:18:21;2.03;;;1.93;;
26686;SDS011;14298;50.900;4.648;2023-02-28T04:20:49;3.00;;;2.53;;
26686;SDS011;14298;50.900;4.648;2023-02-28T04:23:17;2.90;;;2.70;;
26686;SDS011;14298;50.900;4.648;2023-02-28T04:25:46;1.73;;;1.63;;
26686;SDS011;14298;50.900;4.648;2023-02-28T04:28:14;2.50;;;2.40;;
26686;SDS011;14298;50.900;4.648;2023-02-28T04:30:42;3.67;;;2.77;;
26686;SDS011;14298;50.900;4.648;2023-02-28T04:33:11;2.37;;;2.23;;
26686;SDS011;14298;50.900;4.648;2023-02-28T04:35:39;2.97;;;2.77;;
26686;SDS011;14298;50.900;4.648;2023-02-28T04:38:07;2.50;;;2.40;;
26686;SDS011;14298;50.900;4.648;2023-02-28T04:40:36;9.80;;;3.53;;
26686;SDS011;14298;50.900;4.648;2023-02-28T04:43:04;3.03;;;2.83;;
26686;SDS011;14298;50.900;4.648;2023-02-28T04:45:32;2.17;;;2.07;;
26686;SDS011;14298;50.900;4.648;2023-02-28T04:48:02;2.77;;;2.67;;
26686;SDS011;14298;50.900;4.648;2023-02-28T04:50:30;2.67;;;2.47;;
26686;SDS011;14298;50.900;4.648;2023-02-28T04:52:59;2.47;;;2.37;;
26686;SDS011;14298;50.900;4.648;2023-02-28T04:55:27;2.30;;;2.20;;
26686;SDS011;14298;50.900;4.648;2023-02-28T04:57:56;2.23;;;2.13;;
26686;SDS011;14298;50.900;4.648;2023-02-28T05:00:24;2.30;;;2.20;;
26686;SDS011;14298;50.900;4.648;2023-02-28T05:02:52;2.63;;;2.43;;
26686;SDS011;14298;50.900;4.648;2023-02-28T05:05:21;1.93;;;1.83;;
26686;SDS011;14298;50.900;4.648;2023-02-28T05:07:49;5.60;;;3.53;;
26686;SDS011;14298;50.900;4.648;2023-02-28T05:10:17;2.37;;;2.23;;
26686;SDS011;14298;50.900;4.648;2023-02-28T05:12:46;2.87;;;2.67;;
26686;SDS011;14298;50.900;4.648;2023-02-28T05:15:15;5.33;;;4.83;;
26686;SDS011;14298;50.900;4.648;2023-02-28T05:17:44;4.23;;;3.93;;
26686;SDS011;14298;50.900;4.648;2023-02-28T05:20:12;3.93;;;3.27;;
26686;SDS011;14298;50.900;4.648;2023-02-28T05:22:41;4.13;;;3.73;;
26686;SDS011;14298;50.900;4.648;2023-02-28T05:25:15;3.47;;;3.17;;
26686;SDS011;14298;50.900;4.648;2023-02-28T05:27:44;4.23;;;3.83;;
26686;SDS011;14298;50.900;4.648;2023-02-28T05:30:13;3.20;;;2.30;;
26686;SDS011;14298;50.900;4.648;2023-02-28T05:32:41;3.63;;;3.33;;
26686;SDS011;14298;50.900;4.648;2023-02-28T05:35:10;3.50;;;3.23;;
26686;SDS011;14298;50.900;4.648;2023-02-28T05:37:39;4.00;;;3.57;;
26686;SDS011;14298;50.900;4.648;2023-02-28T05:40:07;6.40;;;4.40;;
26686;SDS011;14298;50.900;4.648;2023-02-28T05:42:39;5.93;;;5.30;;
26686;SDS011;14298;50.900;4.648;2023-02-28T05:45:08;11.70;;;4.90;;
26686;SDS011;14298;50.900;4.648;2023-02-28T05:47:37;3.33;;;3.13;;
26686;SDS011;14298;50.900;4.648;2023-02-28T05:50:06;3.33;;;3.07;;
26686;SDS011;14298;50.900;4.648;2023-02-28T05:52:37;3.60;;;3.40;;
26686;SDS011;14298;50.900;4.648;2023-02-28T05:55:05;6.00;;;5.53;;
26686;SDS011;14298;50.900;4.648;2023-02-28T05:57:34;3.07;;;2.87;;
26686;SDS011;14298;50.900;4.648;2023-02-28T06:00:03;3.37;;;3.17;;
26686;SDS011;14298;50.900;4.648;2023-02-28T06:02:32;2.53;;;2.43;;
26686;SDS011;14298;50.900;4.648;2023-02-28T06:05:00;3.10;;;2.93;;
26686;SDS011;14298;50.900;4.648;2023-02-28T06:07:29;3.63;;;3.33;;
26686;SDS011;14298;50.900;4.648;2023-02-28T06:09:57;3.60;;;3.30;;
26686;SDS011;14298;50.900;4.648;2023-02-28T06:12:25;3.40;;;3.10;;
26686;SDS011;14298;50.900;4.648;2023-02-28T06:14:54;4.37;;;3.50;;
26686;SDS011;14298;50.900;4.648;2023-02-28T06:17:22;3.37;;;3.17;;
26686;SDS011;14298;50.900;4.648;2023-02-28T06:19:50;3.43;;;3.20;;
26686;SDS011;14298;50.900;4.648;2023-02-28T06:22:19;4.10;;;3.80;;
26686;SDS011;14298;50.900;4.648;2023-02-28T06:24:47;2.77;;;2.63;;
26686;SDS011;14298;50.900;4.648;2023-02-28T06:27:16;3.90;;;3.20;;
26686;SDS011;14298;50.900;4.648;2023-02-28T06:29:44;3.53;;;3.33;;
26686;SDS011;14298;50.900;4.648;2023-02-28T06:35:00;4.43;;;4.03;;
26686;SDS011;14298;50.900;4.648;2023-02-28T06:37:30;3.13;;;2.93;;
26686;SDS011;14298;50.900;4.648;2023-02-28T06:39:59;3.33;;;3.13;;
26686;SDS011;14298;50.900;4.648;2023-02-28T06:42:27;3.20;;;2.97;;
26686;SDS011;14298;50.900;4.648;2023-02-28T06:44:57;3.17;;;2.97;;
26686;SDS011;14298;50.900;4.648;2023-02-28T06:47:25;4.43;;;4.00;;
26686;SDS011;14298;50.900;4.648;2023-02-28T06:49:54;3.27;;;2.93;;
26686;SDS011;14298;50.900;4.648;2023-02-28T06:52:22;3.23;;;2.97;;
26686;SDS011;14298;50.900;4.648;2023-02-28T06:54:50;2.37;;;2.27;;
26686;SDS011;14298;50.900;4.648;2023-02-28T06:57:20;5.13;;;4.03;;
26686;SDS011;14298;50.900;4.648;2023-02-28T06:59:50;2.70;;;2.50;;
26686;SDS011;14298;50.900;4.648;2023-02-28T07:02:19;2.27;;;2.13;;
26686;SDS011;14298;50.900;4.648;2023-02-28T07:04:47;3.27;;;2.80;;
26686;SDS011;14298;50.900;4.648;2023-02-28T07:07:15;3.33;;;3.13;;
26686;SDS011;14298;50.900;4.648;2023-02-28T07:09:44;5.57;;;4.03;;
26686;SDS011;14298;50.900;4.648;2023-02-28T07:12:12;3.60;;;3.30;;
26686;SDS011;14298;50.900;4.648;2023-02-28T07:14:40;4.73;;;4.43;;
26686;SDS011;14298;50.900;4.648;2023-02-28T07:17:09;4.67;;;3.17;;
26686;SDS011;14298;50.900;4.648;2023-02-28T07:19:39;4.33;;;4.07;;
26686;SDS011;14298;50.900;4.648;2023-02-28T07:22:07;2.80;;;2.37;;
26686;SDS011;14298;50.900;4.648;2023-02-28T07:24:36;3.97;;;3.70;;
26686;SDS011;14298;50.900;4.648;2023-02-28T07:27:04;4.60;;;4.23;;
26686;SDS011;14298;50.900;4.648;2023-02-28T07:29:33;2.83;;;2.63;;
26686;SDS011;14298;50.900;4.648;2023-02-28T07:32:01;3.20;;;3.00;;
26686;SDS011;14298;50.900;4.648;2023-02-28T07:34:30;3.97;;;3.67;;
26686;SDS011;14298;50.900;4.648;2023-02-28T07:36:58;4.37;;;3.97;;
26686;SDS011;14298;50.900;4.648;2023-02-28T07:39:28;3.63;;;3.30;;
26686;SDS011;14298;50.900;4.648;2023-02-28T07:41:56;3.83;;;3.13;;
26686;SDS011;14298;50.900;4.648;2023-02-28T07:44:26;2.53;;;2.33;;
26686;SDS011;14298;50.900;4.648;2023-02-28T07:46:55;2.80;;;2.47;;
26686;SDS011;14298;50.900;4.648;2023-02-28T07:49:23;3.37;;;3.17;;
26686;SDS011;14298;50.900;4.648;2023-02-28T07:51:51;2.93;;;2.73;;
26686;SDS011;14298;50.900;4.648;2023-02-28T07:54:20;2.63;;;2.53;;
26686;SDS011;14298;50.900;4.648;2023-02-28T07:56:48;2.10;;;1.90;;
26686;SDS011;14298;50.900;4.648;2023-02-28T07:59:16;10.00;;;2.63;;
26686;SDS011;14298;50.900;4.648;2023-02-28T08:01:45;2.80;;;2.60;;
26686;SDS011;14298;50.900;4.648;2023-02-28T08:04:13;2.17;;;2.00;;
26686;SDS011;14298;50.900;4.648;2023-02-28T08:06:41;2.10;;;1.90;;
26686;SDS011;14298;50.900;4.648;2023-02-28T08:09:09;2.57;;;1.77;;
26686;SDS011;14298;50.900;4.648;2023-02-28T08:11:38;3.20;;;2.90;;
26686;SDS011;14298;50.900;4.648;2023-02-28T08:14:06;2.00;;;1.90;;
26686;SDS011;14298;50.900;4.648;2023-02-28T08:16:34;1.97;;;1.87;;
26686;SDS011;14298;50.900;4.648;2023-02-28T08:19:03;2.10;;;2.00;;
26686;SDS011;14298;50.900;4.648;2023-02-28T08:21:32;3.00;;;2.80;;
26686;SDS011;14298;50.900;4.648;2023-02-28T08:24:00;2.93;;;2.17;;
26686;SDS011;14298;50.900;4.648;2023-02-28T08:26:28;2.37;;;1.73;;
26686;SDS011;14298;50.900;4.648;2023-02-28T08:28:56;2.33;;;2.13;;
26686;SDS011;14298;50.900;4.648;2023-02-28T08:31:25;2.10;;;1.90;;
26686;SDS011;14298;50.900;4.648;2023-02-28T08:33:54;1.20;;;1.10;;
26686;SDS011;14298;50.900;4.648;2023-02-28T08:36:24;1.60;;;1.50;;
26686;SDS011;14298;50.900;4.648;2023-02-28T08:38:56;1.60;;;1.50;;
26686;SDS011;14298;50.900;4.648;2023-02-28T08:41:26;1.70;;;1.60;;
26686;SDS011;14298;50.900;4.648;2023-02-28T08:43:54;1.80;;;1.70;;
26686;SDS011;14298;50.900;4.648;2023-02-28T08:46:23;1.63;;;1.53;;
26686;SDS011;14298;50.900;4.648;2023-02-28T08:48:53;1.20;;;1.10;;
26686;SDS011;14298;50.900;4.648;2023-02-28T08:51:22;1.70;;;1.60;;
26686;SDS011;14298;50.900;4.648;2023-02-28T08:53:52;3.43;;;1.90;;
26686;SDS011;14298;50.900;4.648;2023-02-28T08:56:23;2.27;;;1.40;;
26686;SDS011;14298;50.900;4.648;2023-02-28T08:58:51;9.83;;;2.30;;
26686;SDS011;14298;50.900;4.648;2023-02-28T09:01:29;1.47;;;1.40;;
26686;SDS011;14298;50.900;4.648;2023-02-28T09:03:54;1.47;;;1.37;;
26686;SDS011;14298;50.900;4.648;2023-02-28T09:06:24;2.63;;;1.90;;
26686;SDS011;14298;50.900;4.648;2023-02-28T09:08:56;1.80;;;1.13;;
26686;SDS011;14298;50.900;4.648;2023-02-28T09:11:27;1.07;;;1.07;;
26686;SDS011;14298;50.900;4.648;2023-02-28T09:13:57;1.73;;;1.30;;
26686;SDS011;14298;50.900;4.648;2023-02-28T09:16:27;2.10;;;2.00;;
26686;SDS011;14298;50.900;4.648;2023-02-28T09:18:55;2.60;;;1.20;;
26686;SDS011;14298;50.900;4.648;2023-02-28T09:21:24;1.27;;;1.10;;
26686;SDS011;14298;50.900;4.648;2023-02-28T09:23:54;1.40;;;1.30;;
26686;SDS011;14298;50.900;4.648;2023-02-28T09:26:23;0.90;;;0.90;;
26686;SDS011;14298;50.900;4.648;2023-02-28T09:28:53;1.30;;;1.30;;
26686;SDS011;14298;50.900;4.648;2023-02-28T09:31:25;1.20;;;1.10;;
26686;SDS011;14298;50.900;4.648;2023-02-28T09:33:55;1.30;;;1.20;;
26686;SDS011;14298;50.900;4.648;2023-02-28T09:36:26;1.37;;;1.27;;
26686;SDS011;14298;50.900;4.648;2023-02-28T09:38:56;1.33;;;1.30;;
26686;SDS011;14298;50.900;4.648;2023-02-28T09:41:25;0.93;;;0.93;;
26686;SDS011;14298;50.900;4.648;2023-02-28T09:43:59;1.20;;;1.13;;
26686;SDS011;14298;50.900;4.648;2023-02-28T09:46:38;0.97;;;0.93;;
26686;SDS011;14298;50.900;4.648;2023-02-28T09:49:08;0.70;;;0.70;;
26686;SDS011;14298;50.900;4.648;2023-02-28T09:54:16;0.87;;;0.87;;
26686;SDS011;14298;50.900;4.648;2023-02-28T09:56:51;1.97;;;1.13;;
26686;SDS011;14298;50.900;4.648;2023-02-28T10:05:49;2.30;;;1.53;;
26686;SDS011;14298;50.900;4.648;2023-02-28T10:08:43;1.67;;;1.37;;
26686;SDS011;14298;50.900;4.648;2023-02-28T10:11:28;1.10;;;1.10;;
26686;SDS011;14298;50.900;4.648;2023-02-28T10:14:05;1.30;;;1.30;;
26686;SDS011;14298;50.900;4.648;2023-02-28T10:16:43;1.10;;;1.10;;
26686;SDS011;14298;50.900;4.648;2023-02-28T10:19:24;1.07;;;1.07;;
26686;SDS011;14298;50.900;4.648;2023-02-28T10:22:04;1.20;;;1.20;;
26686;SDS011;14298;50.900;4.648;2023-02-28T10:24:35;1.13;;;1.10;;
26686;SDS011;14298;50.900;4.648;2023-02-28T10:27:25;1.00;;;1.00;;
26686;SDS011;14298;50.900;4.648;2023-02-28T10:29:56;0.70;;;0.70;;
26686;SDS011;14298;50.900;4.648;2023-02-28T10:32:27;1.47;;;1.37;;
26686;SDS011;14298;50.900;4.648;2023-02-28T10:37:53;0.80;;;0.80;;
26686;SDS011;14298;50.900;4.648;2023-02-28T10:46:04;1.20;;;1.20;;
26686;SDS011;14298;50.900;4.648;2023-02-28T10:50:56;1.40;;;1.30;;
26686;SDS011;14298;50.900;4.648;2023-02-28T10:56:04;0.90;;;0.90;;
26686;SDS011;14298;50.900;4.648;2023-02-28T11:01:44;0.80;;;0.80;;
26686;SDS011;14298;50.900;4.648;2023-02-28T11:04:19;1.20;;;1.13;;
26686;SDS011;14298;50.900;4.648;2023-02-28T11:07:19;0.93;;;0.93;;
26686;SDS011;14298;50.900;4.648;2023-02-28T11:09:52;1.10;;;1.10;;
26686;SDS011;14298;50.900;4.648;2023-02-28T11:15:26;10.10;;;1.57;;
26686;SDS011;14298;50.900;4.648;2023-02-28T11:18:01;1.00;;;1.00;;
26686;SDS011;14298;50.900;4.648;2023-02-28T11:20:37;1.27;;;1.20;;
26686;SDS011;14298;50.900;4.648;2023-02-28T11:23:10;1.13;;;1.10;;
26686;SDS011;14298;50.900;4.648;2023-02-28T11:25:38;1.00;;;1.00;;
26686;SDS011;14298;50.900;4.648;2023-02-28T11:28:23;1.10;;;1.00;;
26686;SDS011;14298;50.900;4.648;2023-02-28T11:33:49;0.73;;;0.73;;
26686;SDS011;14298;50.900;4.648;2023-02-28T11:36:21;0.80;;;0.80;;
26686;SDS011;14298;50.900;4.648;2023-02-28T11:38:56;1.13;;;1.13;;
26686;SDS011;14298;50.900;4.648;2023-02-28T11:46:47;2.43;;;1.20;;
26686;SDS011;14298;50.900;4.648;2023-02-28T11:49:23;0.90;;;0.90;;
26686;SDS011;14298;50.900;4.648;2023-02-28T12:03:01;1.50;;;1.20;;
26686;SDS011;14298;50.900;4.648;2023-02-28T12:28:17;1.10;;;1.10;;
26686;SDS011;14298;50.900;4.648;2023-02-28T12:31:01;1.00;;;1.00;;
26686;SDS011;14298;50.900;4.648;2023-02-28T12:33:34;0.90;;;0.90;;
26686;SDS011;14298;50.900;4.648;2023-02-28T12:36:09;1.43;;;1.33;;
26686;SDS011;14298;50.900;4.648;2023-02-28T12:38:43;1.00;;;1.00;;
26686;SDS011;14298;50.900;4.648;2023-02-28T12:41:13;0.87;;;0.87;;
26686;SDS011;14298;50.900;4.648;2023-02-28T12:44:03;1.00;;;1.00;;
26686;SDS011;14298;50.900;4.648;2023-02-28T12:46:40;1.03;;;1.03;;
26686;SDS011;14298;50.900;4.648;2023-02-28T12:49:06;1.20;;;1.10;;
26686;SDS011;14298;50.900;4.648;2023-02-28T12:51:39;0.80;;;0.80;;
26686;SDS011;14298;50.900;4.648;2023-02-28T12:57:06;1.30;;;1.20;;
26686;SDS011;14298;50.900;4.648;2023-02-28T13:00:00;1.37;;;0.97;;
26686;SDS011;14298;50.900;4.648;2023-02-28T13:05:17;0.60;;;0.60;;
26686;SDS011;14298;50.900;4.648;2023-02-28T13:08:01;1.57;;;0.87;;
26686;SDS011;14298;50.900;4.648;2023-02-28T13:10:49;0.80;;;0.80;;
26686;SDS011;14298;50.900;4.648;2023-02-28T13:13:24;0.80;;;0.80;;
26686;SDS011;14298;50.900;4.648;2023-02-28T13:16:03;1.30;;;1.20;;
26686;SDS011;14298;50.900;4.648;2023-02-28T13:18:35;0.90;;;0.90;;
26686;SDS011;14298;50.900;4.648;2023-02-28T13:21:07;0.80;;;0.80;;
26686;SDS011;14298;50.900;4.648;2023-02-28T13:39:57;1.07;;;1.07;;
26686;SDS011;14298;50.900;4.648;2023-02-28T13:42:46;1.60;;;1.50;;
26686;SDS011;14298;50.900;4.648;2023-02-28T13:45:21;1.00;;;1.00;;
26686;SDS011;14298;50.900;4.648;2023-02-28T13:47:55;0.87;;;0.87;;
26686;SDS011;14298;50.900;4.648;2023-02-28T13:50:48;0.87;;;0.87;;
26686;SDS011;14298;50.900;4.648;2023-02-28T13:56:03;0.80;;;0.80;;
26686;SDS011;14298;50.900;4.648;2023-02-28T13:58:59;1.10;;;0.90;;
26686;SDS011;14298;50.900;4.648;2023-02-28T14:07:18;1.20;;;1.20;;
26686;SDS011;14298;50.900;4.648;2023-02-28T14:09:59;1.23;;;1.23;;
26686;SDS011;14298;50.900;4.648;2023-02-28T14:15:38;1.10;;;1.10;;
26686;SDS011;14298;50.900;4.648;2023-02-28T14:18:20;1.00;;;1.00;;
26686;SDS011;14298;50.900;4.648;2023-02-28T14:20:51;0.83;;;0.83;;
26686;SDS011;14298;50.900;4.648;2023-02-28T14:37:53;1.13;;;1.10;;
26686;SDS011;14298;50.900;4.648;2023-02-28T14:40:34;3.00;;;1.37;;
26686;SDS011;14298;50.900;4.648;2023-02-28T14:43:00;1.47;;;1.37;;
26686;SDS011;14298;50.900;4.648;2023-02-28T14:45:32;1.10;;;1.10;;
26686;SDS011;14298;50.900;4.648;2023-02-28T14:48:04;0.60;;;0.60;;
26686;SDS011;14298;50.900;4.648;2023-02-28T14:50:36;1.00;;;1.00;;
26686;SDS011;14298;50.900;4.648;2023-02-28T14:53:05;1.30;;;1.30;;
26686;SDS011;14298;50.900;4.648;2023-02-28T14:55:36;1.00;;;1.00;;
26686;SDS011;14298;50.900;4.648;2023-02-28T14:58:06;1.03;;;1.03;;
26686;SDS011;14298;50.900;4.648;2023-02-28T15:00:39;1.10;;;1.10;;
26686;SDS011;14298;50.900;4.648;2023-02-28T15:06:15;1.13;;;1.13;;
26686;SDS011;14298;50.900;4.648;2023-02-28T15:08:44;1.00;;;1.00;;
26686;SDS011;14298;50.900;4.648;2023-02-28T15:11:16;1.13;;;1.07;;
26686;SDS011;14298;50.900;4.648;2023-02-28T15:13:50;1.30;;;1.20;;
26686;SDS011;14298;50.900;4.648;2023-02-28T15:16:25;1.40;;;1.30;;
26686;SDS011;14298;50.900;4.648;2023-02-28T15:19:08;1.93;;;1.20;;
26686;SDS011;14298;50.900;4.648;2023-02-28T15:21:34;2.63;;;1.20;;
26686;SDS011;14298;50.900;4.648;2023-02-28T15:24:18;0.90;;;0.90;;
26686;SDS011;14298;50.900;4.648;2023-02-28T15:26:57;0.80;;;0.80;;
26686;SDS011;14298;50.900;4.648;2023-02-28T15:29:29;1.23;;;1.13;;
26686;SDS011;14298;50.900;4.648;2023-02-28T15:32:04;0.77;;;0.77;;
26686;SDS011;14298;50.900;4.648;2023-02-28T15:34:38;1.10;;;1.07;;
26686;SDS011;14298;50.900;4.648;2023-02-28T15:40:11;1.70;;;1.60;;
26686;SDS011;14298;50.900;4.648;2023-02-28T15:43:15;1.20;;;1.20;;
26686;SDS011;14298;50.900;4.648;2023-02-28T15:45:46;0.70;;;0.70;;
26686;SDS011;14298;50.900;4.648;2023-02-28T15:48:20;1.10;;;1.10;;
26686;SDS011;14298;50.900;4.648;2023-02-28T15:50:54;0.90;;;0.90;;
26686;SDS011;14298;50.900;4.648;2023-02-28T15:53:27;0.97;;;0.97;;
26686;SDS011;14298;50.900;4.648;2023-02-28T15:56:01;1.07;;;1.07;;
26686;SDS011;14298;50.900;4.648;2023-02-28T15:58:31;1.40;;;1.40;;
26686;SDS011;14298;50.900;4.648;2023-02-28T16:01:07;1.27;;;1.17;;
26686;SDS011;14298;50.900;4.648;2023-02-28T16:03:48;1.53;;;1.37;;
26686;SDS011;14298;50.900;4.648;2023-02-28T16:09:02;1.37;;;1.27;;
26686;SDS011;14298;50.900;4.648;2023-02-28T16:11:35;1.57;;;1.47;;
26686;SDS011;14298;50.900;4.648;2023-02-28T16:14:05;0.97;;;0.97;;
26686;SDS011;14298;50.900;4.648;2023-02-28T16:16:41;0.97;;;0.93;;
26686;SDS011;14298;50.900;4.648;2023-02-28T16:19:07;1.07;;;1.07;;
26686;SDS011;14298;50.900;4.648;2023-02-28T16:21:36;1.30;;;1.30;;
26686;SDS011;14298;50.900;4.648;2023-02-28T16:24:05;2.87;;;2.60;;
26686;SDS011;14298;50.900;4.648;2023-02-28T16:26:34;1.50;;;1.40;;
26686;SDS011;14298;50.900;4.648;2023-02-28T16:29:05;0.90;;;0.90;;
26686;SDS011;14298;50.900;4.648;2023-02-28T16:31:35;1.27;;;1.27;;
26686;SDS011;14298;50.900;4.648;2023-02-28T16:34:05;1.17;;;1.17;;
26686;SDS011;14298;50.900;4.648;2023-02-28T16:36:33;1.10;;;1.10;;
26686;SDS011;14298;50.900;4.648;2023-02-28T16:39:01;1.00;;;1.00;;
26686;SDS011;14298;50.900;4.648;2023-02-28T16:41:31;8.60;;;1.23;;
26686;SDS011;14298;50.900;4.648;2023-02-28T16:44:01;0.90;;;0.90;;
26686;SDS011;14298;50.900;4.648;2023-02-28T16:46:37;1.73;;;1.10;;
26686;SDS011;14298;50.900;4.648;2023-02-28T16:49:02;0.80;;;0.80;;
26686;SDS011;14298;50.900;4.648;2023-02-28T16:51:30;1.07;;;1.07;;
26686;SDS011;14298;50.900;4.648;2023-02-28T16:53:59;3.13;;;1.13;;
26686;SDS011;14298;50.900;4.648;2023-02-28T16:56:27;1.03;;;1.03;;
26686;SDS011;14298;50.900;4.648;2023-02-28T16:58:59;1.40;;;1.30;;
26686;SDS011;14298;50.900;4.648;2023-02-28T17:01:27;3.57;;;1.50;;
26686;SDS011;14298;50.900;4.648;2023-02-28T17:03:55;4.20;;;2.03;;
26686;SDS011;14298;50.900;4.648;2023-02-28T17:06:25;1.53;;;1.43;;
26686;SDS011;14298;50.900;4.648;2023-02-28T17:08:56;1.60;;;1.50;;
26686;SDS011;14298;50.900;4.648;2023-02-28T17:11:25;0.93;;;0.93;;
26686;SDS011;14298;50.900;4.648;2023-02-28T17:13:54;1.13;;;1.13;;
26686;SDS011;14298;50.900;4.648;2023-02-28T17:16:25;1.00;;;1.00;;
26686;SDS011;14298;50.900;4.648;2023-02-28T17:18:54;1.80;;;1.33;;
26686;SDS011;14298;50.900;4.648;2023-02-28T17:21:27;1.70;;;1.60;;
26686;SDS011;14298;50.900;4.648;2023-02-28T17:23:56;3.43;;;1.67;;
26686;SDS011;14298;50.900;4.648;2023-02-28T17:26:25;1.60;;;1.50;;
26686;SDS011;14298;50.900;4.648;2023-02-28T17:28:55;1.57;;;1.50;;
26686;SDS011;14298;50.900;4.648;2023-02-28T17:31:25;1.10;;;1.10;;
26686;SDS011;14298;50.900;4.648;2023-02-28T17:33:54;1.10;;;1.10;;
26686;SDS011;14298;50.900;4.648;2023-02-28T17:36:23;1.10;;;1.10;;
26686;SDS011;14298;50.900;4.648;2023-02-28T17:38:53;1.57;;;1.47;;
26686;SDS011;14298;50.900;4.648;2023-02-28T17:41:22;1.80;;;1.53;;
26686;SDS011;14298;50.900;4.648;2023-02-28T17:43:50;1.67;;;1.23;;
26686;SDS011;14298;50.900;4.648;2023-02-28T17:46:20;1.47;;;1.17;;
26686;SDS011;14298;50.900;4.648;2023-02-28T17:48:51;1.27;;;1.17;;
26686;SDS011;14298;50.900;4.648;2023-02-28T17:51:21;1.37;;;1.33;;
26686;SDS011;14298;50.900;4.648;2023-02-28T17:53:51;3.83;;;2.07;;
26686;SDS011;14298;50.900;4.648;2023-02-28T17:56:21;1.30;;;1.30;;
26686;SDS011;14298;50.900;4.648;2023-02-28T17:58:51;1.53;;;1.43;;
26686;SDS011;14298;50.900;4.648;2023-02-28T18:01:22;1.27;;;1.27;;